sensor_id;sensor_type;location;lat;lon;timestamp;pressure;altitude;pressure_sealevel;temperature;humidity
60427;BME280;46274;47.168;27.604;2023-10-08T00:05:12;99267.81;;;19.40;44.21
60427;BME280;46274;47.168;27.604;2023-10-08T00:11:19;99144.31;;;18.67;44.70
60427;BME280;46274;47.168;27.604;2023-10-08T00:17:26;99247.28;;;19.26;44.70
60427;BME280;46274;47.168;27.604;2023-10-08T00:23:35;99185.28;;;19.08;44.48
60427;BME280;46274;47.168;27.604;2023-10-08T00:29:42;99230.94;;;19.36;44.87
60427;BME280;46274;47.168;27.604;2023-10-08T00:35:46;99193.19;;;19.26;44.77
60427;BME280;46274;47.168;27.604;2023-10-08T00:41:51;99191.41;;;19.37;44.56
60427;BME280;46274;47.168;27.604;2023-10-08T00:47:56;99212.22;;;19.55;44.45
60427;BME280;46274;47.168;27.604;2023-10-08T00:54:03;99215.16;;;19.48;44.60
60427;BME280;46274;47.168;27.604;2023-10-08T01:00:10;99206.91;;;19.48;44.90
60427;BME280;46274;47.168;27.604;2023-10-08T01:06:19;99168.09;;;19.17;44.98
60427;BME280;46274;47.168;27.604;2023-10-08T01:12:25;99203.66;;;19.51;45.00
60427;BME280;46274;47.168;27.604;2023-10-08T01:18:36;99203.94;;;19.50;45.23
60427;BME280;46274;47.168;27.604;2023-10-08T01:24:41;99119.88;;;19.05;44.80
60427;BME280;46274;47.168;27.604;2023-10-08T01:30:53;99159.09;;;19.22;44.99
60427;BME280;46274;47.168;27.604;2023-10-08T01:36:59;99157.88;;;19.35;44.70
60427;BME280;46274;47.168;27.604;2023-10-08T01:43:10;99179.09;;;19.39;45.27
60427;BME280;46274;47.168;27.604;2023-10-08T01:49:20;99184.00;;;19.37;45.23
60427;BME280;46274;47.168;27.604;2023-10-08T01:55:32;99176.63;;;19.43;45.40
60427;BME280;46274;47.168;27.604;2023-10-08T02:01:36;99168.22;;;19.28;46.06
60427;BME280;46274;47.168;27.604;2023-10-08T02:07:42;99107.25;;;19.04;46.13
60427;BME280;46274;47.168;27.604;2023-10-08T02:13:50;99113.44;;;19.16;45.82
60427;BME280;46274;47.168;27.604;2023-10-08T02:20:10;99040.66;;;18.69;45.59
60427;BME280;46274;47.168;27.604;2023-10-08T02:26:14;99105.13;;;19.11;45.48
60427;BME280;46274;47.168;27.604;2023-10-08T02:32:25;99142.97;;;19.31;45.94
60427;BME280;46274;47.168;27.604;2023-10-08T02:38:27;99144.38;;;19.33;45.71
60427;BME280;46274;47.168;27.604;2023-10-08T02:44:32;99133.22;;;19.40;45.57
60427;BME280;46274;47.168;27.604;2023-10-08T02:50:35;99118.91;;;19.38;45.54
60427;BME280;46274;47.168;27.604;2023-10-08T02:56:46;99098.59;;;19.39;45.41
60427;BME280;46274;47.168;27.604;2023-10-08T03:02:51;99082.56;;;19.31;45.88
60427;BME280;46274;47.168;27.604;2023-10-08T03:08:53;99093.06;;;19.34;45.62
60427;BME280;46274;47.168;27.604;2023-10-08T03:14:56;99068.09;;;19.13;45.82
60427;BME280;46274;47.168;27.604;2023-10-08T03:21:19;98983.03;;;18.47;46.34
60427;BME280;46274;47.168;27.604;2023-10-08T03:27:35;99048.94;;;18.74;46.96
60427;BME280;46274;47.168;27.604;2023-10-08T03:33:44;98986.25;;;18.22;47.31
60427;BME280;46274;47.168;27.604;2023-10-08T03:39:51;99081.97;;;18.80;46.92
60427;BME280;46274;47.168;27.604;2023-10-08T03:45:54;99077.25;;;18.75;47.17
60427;BME280;46274;47.168;27.604;2023-10-08T03:52:03;99005.34;;;18.34;47.27
60427;BME280;46274;47.168;27.604;2023-10-08T03:58:12;99081.63;;;18.76;47.42
60427;BME280;46274;47.168;27.604;2023-10-08T04:04:30;98943.63;;;17.93;47.57
60427;BME280;46274;47.168;27.604;2023-10-08T04:10:52;99078.88;;;18.76;47.95
60427;BME280;46274;47.168;27.604;2023-10-08T04:17:28;99091.03;;;18.80;47.68
60427;BME280;46274;47.168;27.604;2023-10-08T04:23:32;98941.31;;;17.84;48.40
60427;BME280;46274;47.168;27.604;2023-10-08T04:29:36;99075.47;;;18.69;48.13
60427;BME280;46274;47.168;27.604;2023-10-08T04:35:50;99072.34;;;18.60;48.57
60427;BME280;46274;47.168;27.604;2023-10-08T04:42:02;99016.16;;;18.24;49.07
60427;BME280;46274;47.168;27.604;2023-10-08T04:48:12;98895.75;;;17.44;49.24
60427;BME280;46274;47.168;27.604;2023-10-08T04:54:26;98984.50;;;17.94;49.50
60427;BME280;46274;47.168;27.604;2023-10-08T05:00:37;98980.75;;;18.00;49.51
60427;BME280;46274;47.168;27.604;2023-10-08T05:07:13;99039.94;;;18.18;49.83
60427;BME280;46274;47.168;27.604;2023-10-08T05:13:35;99058.03;;;18.36;49.93
60427;BME280;46274;47.168;27.604;2023-10-08T05:19:54;99075.81;;;18.34;50.14
60427;BME280;46274;47.168;27.604;2023-10-08T05:26:07;99169.44;;;17.92;53.23
60427;BME280;46274;47.168;27.604;2023-10-08T05:32:19;99220.28;;;16.06;63.32
60427;BME280;46274;47.168;27.604;2023-10-08T05:38:40;99269.84;;;14.99;66.64
60427;BME280;46274;47.168;27.604;2023-10-08T05:45:31;99291.72;;;15.36;64.46
60427;BME280;46274;47.168;27.604;2023-10-08T05:51:39;99252.91;;;14.15;67.46
60427;BME280;46274;47.168;27.604;2023-10-08T05:58:04;99299.31;;;13.95;68.62
60427;BME280;46274;47.168;27.604;2023-10-08T06:04:33;99330.56;;;13.86;69.64
60427;BME280;46274;47.168;27.604;2023-10-08T06:11:02;99332.38;;;13.99;68.93
60427;BME280;46274;47.168;27.604;2023-10-08T06:17:09;99319.34;;;13.62;69.39
60427;BME280;46274;47.168;27.604;2023-10-08T06:23:41;99338.97;;;13.78;69.21
60427;BME280;46274;47.168;27.604;2023-10-08T06:29:48;99371.22;;;13.87;68.63
60427;BME280;46274;47.168;27.604;2023-10-08T06:36:07;99191.56;;;12.51;67.89
60427;BME280;46274;47.168;27.604;2023-10-08T06:42:19;99408.00;;;14.10;66.63
60427;BME280;46274;47.168;27.604;2023-10-08T06:48:33;99433.50;;;13.44;72.18
60427;BME280;46274;47.168;27.604;2023-10-08T06:54:47;99456.88;;;12.23;79.75
60427;BME280;46274;47.168;27.604;2023-10-08T07:00:52;99425.59;;;12.34;79.14
60427;BME280;46274;47.168;27.604;2023-10-08T07:06:56;99432.22;;;12.18;80.85
60427;BME280;46274;47.168;27.604;2023-10-08T07:13:03;99461.09;;;11.63;83.30
60427;BME280;46274;47.168;27.604;2023-10-08T07:19:08;99481.91;;;12.12;81.20
60427;BME280;46274;47.168;27.604;2023-10-08T07:25:23;99491.78;;;11.64;81.31
60427;BME280;46274;47.168;27.604;2023-10-08T07:31:39;99483.28;;;11.39;82.94
60427;BME280;46274;47.168;27.604;2023-10-08T07:37:46;99510.00;;;10.77;85.72
60427;BME280;46274;47.168;27.604;2023-10-08T07:43:55;99533.19;;;10.65;87.14
60427;BME280;46274;47.168;27.604;2023-10-08T07:50:01;99502.47;;;11.16;82.24
60427;BME280;46274;47.168;27.604;2023-10-08T07:56:23;99519.88;;;11.28;82.08
60427;BME280;46274;47.168;27.604;2023-10-08T08:02:31;99554.16;;;10.93;82.36
60427;BME280;46274;47.168;27.604;2023-10-08T08:08:36;99588.16;;;10.95;82.68
60427;BME280;46274;47.168;27.604;2023-10-08T08:14:40;99622.22;;;10.68;81.24
60427;BME280;46274;47.168;27.604;2023-10-08T08:20:49;99645.16;;;11.02;80.58
60427;BME280;46274;47.168;27.604;2023-10-08T08:26:53;99646.31;;;10.63;80.17
60427;BME280;46274;47.168;27.604;2023-10-08T08:33:10;99672.28;;;10.72;81.73
60427;BME280;46274;47.168;27.604;2023-10-08T08:39:23;99694.78;;;10.28;83.12
60427;BME280;46274;47.168;27.604;2023-10-08T08:45:37;99639.56;;;9.53;81.38
60427;BME280;46274;47.168;27.604;2023-10-08T08:58:50;99725.50;;;10.12;82.22
60427;BME280;46274;47.168;27.604;2023-10-08T09:05:03;99757.19;;;10.03;84.09
60427;BME280;46274;47.168;27.604;2023-10-08T09:11:27;99731.00;;;9.81;83.35
60427;BME280;46274;47.168;27.604;2023-10-08T09:17:32;99642.47;;;8.50;86.04
60427;BME280;46274;47.168;27.604;2023-10-08T09:23:39;99760.94;;;10.02;83.71
60427;BME280;46274;47.168;27.604;2023-10-08T09:29:46;99786.31;;;10.47;82.03
60427;BME280;46274;47.168;27.604;2023-10-08T09:35:52;99763.34;;;10.43;81.73
60427;BME280;46274;47.168;27.604;2023-10-08T09:42:03;99781.00;;;10.54;82.00
60427;BME280;46274;47.168;27.604;2023-10-08T09:48:11;99805.28;;;10.47;81.42
60427;BME280;46274;47.168;27.604;2023-10-08T09:54:28;99758.28;;;10.17;81.91
60427;BME280;46274;47.168;27.604;2023-10-08T10:00:35;99802.97;;;9.90;84.47
60427;BME280;46274;47.168;27.604;2023-10-08T10:06:38;99784.63;;;10.46;81.70
60427;BME280;46274;47.168;27.604;2023-10-08T10:12:43;99820.03;;;10.45;82.49
60427;BME280;46274;47.168;27.604;2023-10-08T10:18:48;99818.31;;;10.67;81.77
60427;BME280;46274;47.168;27.604;2023-10-08T10:24:56;99795.44;;;10.69;81.85
60427;BME280;46274;47.168;27.604;2023-10-08T10:31:02;99725.84;;;10.32;81.75
60427;BME280;46274;47.168;27.604;2023-10-08T10:37:08;99817.16;;;11.14;81.42
60427;BME280;46274;47.168;27.604;2023-10-08T10:43:18;99808.28;;;10.90;83.16
60427;BME280;46274;47.168;27.604;2023-10-08T10:49:22;99685.63;;;10.06;80.93
60427;BME280;46274;47.168;27.604;2023-10-08T10:55:33;99800.84;;;10.69;80.73
60427;BME280;46274;47.168;27.604;2023-10-08T11:01:35;99799.94;;;10.77;80.34
60427;BME280;46274;47.168;27.604;2023-10-08T11:07:56;99763.13;;;10.30;80.94
60427;BME280;46274;47.168;27.604;2023-10-08T11:14:07;99714.25;;;10.00;79.28
60427;BME280;46274;47.168;27.604;2023-10-08T11:20:27;99722.72;;;9.51;77.67
60427;BME280;46274;47.168;27.604;2023-10-08T11:26:35;99842.56;;;10.45;78.49
60427;BME280;46274;47.168;27.604;2023-10-08T11:32:49;99831.56;;;10.62;78.27
60427;BME280;46274;47.168;27.604;2023-10-08T11:39:10;99832.13;;;10.34;79.42
60427;BME280;46274;47.168;27.604;2023-10-08T11:45:19;99781.03;;;10.31;81.29
60427;BME280;46274;47.168;27.604;2023-10-08T11:51:45;99827.25;;;10.53;80.58
60427;BME280;46274;47.168;27.604;2023-10-08T11:57:57;99631.19;;;9.40;80.23
60427;BME280;46274;47.168;27.604;2023-10-08T12:04:07;99719.91;;;9.91;80.27
60427;BME280;46274;47.168;27.604;2023-10-08T12:10:25;99627.03;;;9.75;79.35
60427;BME280;46274;47.168;27.604;2023-10-08T12:16:30;99764.38;;;10.57;80.72
60427;BME280;46274;47.168;27.604;2023-10-08T12:22:40;99826.31;;;10.60;80.63
60427;BME280;46274;47.168;27.604;2023-10-08T12:28:50;99814.34;;;10.55;80.83
60427;BME280;46274;47.168;27.604;2023-10-08T12:34:56;99782.31;;;10.43;81.36
60427;BME280;46274;47.168;27.604;2023-10-08T12:40:58;99747.19;;;10.35;80.64
60427;BME280;46274;47.168;27.604;2023-10-08T12:47:10;99810.41;;;10.42;80.81
60427;BME280;46274;47.168;27.604;2023-10-08T12:53:16;99649.31;;;9.31;81.15
60427;BME280;46274;47.168;27.604;2023-10-08T12:59:25;99801.78;;;10.16;79.62
60427;BME280;46274;47.168;27.604;2023-10-08T13:05:36;99701.38;;;10.02;78.29
60427;BME280;46274;47.168;27.604;2023-10-08T13:11:40;99808.50;;;10.28;79.59
60427;BME280;46274;47.168;27.604;2023-10-08T13:17:49;99635.03;;;9.23;79.82
60427;BME280;46274;47.168;27.604;2023-10-08T13:23:53;99808.94;;;10.55;79.12
60427;BME280;46274;47.168;27.604;2023-10-08T13:30:10;99596.81;;;9.49;79.50
60427;BME280;46274;47.168;27.604;2023-10-08T13:36:13;99654.06;;;10.36;78.91
60427;BME280;46274;47.168;27.604;2023-10-08T13:42:20;99802.13;;;11.26;77.54
60427;BME280;46274;47.168;27.604;2023-10-08T13:48:32;99817.25;;;11.50;78.12
60427;BME280;46274;47.168;27.604;2023-10-08T13:54:50;99808.88;;;11.67;74.43
60427;BME280;46274;47.168;27.604;2023-10-08T14:01:01;99806.16;;;11.82;73.51
60427;BME280;46274;47.168;27.604;2023-10-08T14:07:12;99811.41;;;11.98;73.42
60427;BME280;46274;47.168;27.604;2023-10-08T14:13:34;99688.44;;;10.95;72.39
60427;BME280;46274;47.168;27.604;2023-10-08T14:19:46;99705.19;;;11.50;72.89
60427;BME280;46274;47.168;27.604;2023-10-08T14:25:53;99801.06;;;12.08;70.81
60427;BME280;46274;47.168;27.604;2023-10-08T14:32:18;99763.38;;;11.84;70.14
60427;BME280;46274;47.168;27.604;2023-10-08T14:38:25;99735.81;;;11.65;69.35
60427;BME280;46274;47.168;27.604;2023-10-08T14:44:48;99797.72;;;11.76;68.38
60427;BME280;46274;47.168;27.604;2023-10-08T14:50:55;99794.41;;;12.11;68.86
60427;BME280;46274;47.168;27.604;2023-10-08T14:57:01;99798.44;;;12.00;68.07
60427;BME280;46274;47.168;27.604;2023-10-08T15:03:06;99810.09;;;11.94;68.19
60427;BME280;46274;47.168;27.604;2023-10-08T15:09:08;99804.22;;;11.75;68.60
60427;BME280;46274;47.168;27.604;2023-10-08T15:15:11;99810.97;;;11.65;68.95
60427;BME280;46274;47.168;27.604;2023-10-08T15:21:17;99733.03;;;10.78;69.34
60427;BME280;46274;47.168;27.604;2023-10-08T15:27:19;99841.03;;;11.33;68.74
60427;BME280;46274;47.168;27.604;2023-10-08T15:33:23;99765.28;;;10.87;68.41
60427;BME280;46274;47.168;27.604;2023-10-08T15:39:29;99862.44;;;11.28;68.28
60427;BME280;46274;47.168;27.604;2023-10-08T15:45:31;99761.63;;;10.42;68.76
60427;BME280;46274;47.168;27.604;2023-10-08T15:51:33;99797.50;;;9.98;70.35
60427;BME280;46274;47.168;27.604;2023-10-08T15:57:38;99897.50;;;10.77;69.41
60427;BME280;46274;47.168;27.604;2023-10-08T16:03:40;99913.16;;;10.67;69.70
60427;BME280;46274;47.168;27.604;2023-10-08T16:09:43;99907.44;;;10.62;69.83
60427;BME280;46274;47.168;27.604;2023-10-08T16:15:48;99922.34;;;10.58;69.78
60427;BME280;46274;47.168;27.604;2023-10-08T16:21:51;99878.94;;;10.12;69.56
60427;BME280;46274;47.168;27.604;2023-10-08T16:27:53;99951.06;;;10.44;69.36
60427;BME280;46274;47.168;27.604;2023-10-08T16:33:57;99830.19;;;9.57;69.74
60427;BME280;46274;47.168;27.604;2023-10-08T16:40:00;99958.56;;;10.34;69.18
60427;BME280;46274;47.168;27.604;2023-10-08T16:46:02;99988.53;;;10.32;69.56
60427;BME280;46274;47.168;27.604;2023-10-08T16:52:07;99846.69;;;9.31;68.97
60427;BME280;46274;47.168;27.604;2023-10-08T16:58:15;99893.47;;;9.40;67.94
60427;BME280;46274;47.168;27.604;2023-10-08T17:04:21;99930.25;;;9.66;68.04
60427;BME280;46274;47.168;27.604;2023-10-08T17:10:23;100044.41;;;10.33;67.97
60427;BME280;46274;47.168;27.604;2023-10-08T17:16:33;99932.00;;;9.50;67.88
60427;BME280;46274;47.168;27.604;2023-10-08T17:22:36;100072.00;;;10.20;68.44
60427;BME280;46274;47.168;27.604;2023-10-08T17:28:39;99988.78;;;9.50;68.37
60427;BME280;46274;47.168;27.604;2023-10-08T17:34:43;100084.03;;;10.01;68.33
60427;BME280;46274;47.168;27.604;2023-10-08T17:40:48;100091.34;;;9.85;67.90
60427;BME280;46274;47.168;27.604;2023-10-08T17:46:50;100140.22;;;10.08;67.32
60427;BME280;46274;47.168;27.604;2023-10-08T17:52:56;100155.78;;;9.73;67.06
60427;BME280;46274;47.168;27.604;2023-10-08T17:58:59;100138.03;;;9.70;63.86
60427;BME280;46274;47.168;27.604;2023-10-08T18:05:02;100105.38;;;9.47;62.75
60427;BME280;46274;47.168;27.604;2023-10-08T18:11:06;100053.50;;;9.11;62.49
60427;BME280;46274;47.168;27.604;2023-10-08T18:17:09;100126.69;;;9.42;61.82
60427;BME280;46274;47.168;27.604;2023-10-08T18:23:12;100187.22;;;9.49;60.53
60427;BME280;46274;47.168;27.604;2023-10-08T18:29:16;100236.25;;;9.63;60.53
60427;BME280;46274;47.168;27.604;2023-10-08T18:35:19;100246.56;;;9.59;60.63
60427;BME280;46274;47.168;27.604;2023-10-08T18:41:21;100133.84;;;8.42;60.94
60427;BME280;46274;47.168;27.604;2023-10-08T18:47:28;100160.25;;;8.64;60.73
60427;BME280;46274;47.168;27.604;2023-10-08T18:53:36;100077.97;;;8.08;60.20
60427;BME280;46274;47.168;27.604;2023-10-08T18:59:38;100179.25;;;8.46;60.10
60427;BME280;46274;47.168;27.604;2023-10-08T19:05:40;100298.63;;;9.10;59.31
60427;BME280;46274;47.168;27.604;2023-10-08T19:11:43;100253.06;;;8.55;59.75
60427;BME280;46274;47.168;27.604;2023-10-08T19:17:48;100330.94;;;8.86;59.56
60427;BME280;46274;47.168;27.604;2023-10-08T19:23:52;100318.50;;;8.75;58.39
60427;BME280;46274;47.168;27.604;2023-10-08T19:29:55;100282.34;;;8.42;59.00
60427;BME280;46274;47.168;27.604;2023-10-08T19:35:59;100361.09;;;8.55;58.15
60427;BME280;46274;47.168;27.604;2023-10-08T19:42:01;100312.16;;;8.22;58.79
60427;BME280;46274;47.168;27.604;2023-10-08T19:48:05;100318.34;;;8.33;59.44
60427;BME280;46274;47.168;27.604;2023-10-08T19:54:08;100381.09;;;8.44;59.14
60427;BME280;46274;47.168;27.604;2023-10-08T20:00:13;100353.88;;;8.10;58.42
60427;BME280;46274;47.168;27.604;2023-10-08T20:06:15;100393.84;;;8.24;58.65
60427;BME280;46274;47.168;27.604;2023-10-08T20:12:17;100312.84;;;7.71;59.29
60427;BME280;46274;47.168;27.604;2023-10-08T20:18:21;100413.19;;;8.47;58.63
60427;BME280;46274;47.168;27.604;2023-10-08T20:24:23;100421.06;;;8.31;58.51
60427;BME280;46274;47.168;27.604;2023-10-08T20:30:26;100427.63;;;8.11;57.34
60427;BME280;46274;47.168;27.604;2023-10-08T20:36:29;100424.25;;;8.26;57.47
60427;BME280;46274;47.168;27.604;2023-10-08T20:42:32;100275.88;;;7.35;57.44
60427;BME280;46274;47.168;27.604;2023-10-08T20:48:34;100444.09;;;8.07;56.08
60427;BME280;46274;47.168;27.604;2023-10-08T20:54:39;100449.66;;;8.06;56.10
60427;BME280;46274;47.168;27.604;2023-10-08T21:00:42;100441.75;;;7.95;55.99
60427;BME280;46274;47.168;27.604;2023-10-08T21:06:47;100336.09;;;7.26;57.00
60427;BME280;46274;47.168;27.604;2023-10-08T21:12:52;100453.88;;;7.91;56.41
60427;BME280;46274;47.168;27.604;2023-10-08T21:18:54;100392.06;;;7.42;56.73
60427;BME280;46274;47.168;27.604;2023-10-08T21:24:57;100432.13;;;7.64;56.81
60427;BME280;46274;47.168;27.604;2023-10-08T21:31:06;100390.53;;;7.30;57.56
60427;BME280;46274;47.168;27.604;2023-10-08T21:37:09;100402.72;;;7.34;57.13
60427;BME280;46274;47.168;27.604;2023-10-08T21:43:11;100470.75;;;7.55;57.13
60427;BME280;46274;47.168;27.604;2023-10-08T21:49:16;100477.19;;;7.45;57.32
60427;BME280;46274;47.168;27.604;2023-10-08T21:55:18;100404.81;;;7.03;57.22
60427;BME280;46274;47.168;27.604;2023-10-08T22:01:23;100370.28;;;6.69;57.05
60427;BME280;46274;47.168;27.604;2023-10-08T22:07:25;100367.91;;;6.56;56.79
60427;BME280;46274;47.168;27.604;2023-10-08T22:13:28;100470.00;;;7.16;56.70
60427;BME280;46274;47.168;27.604;2023-10-08T22:19:32;100385.44;;;6.60;56.12
60427;BME280;46274;47.168;27.604;2023-10-08T22:25:48;100510.56;;;7.24;57.28
60427;BME280;46274;47.168;27.604;2023-10-08T22:31:51;100446.94;;;6.65;56.76
60427;BME280;46274;47.168;27.604;2023-10-08T22:37:54;100492.28;;;6.98;56.64
60427;BME280;46274;47.168;27.604;2023-10-08T22:44:07;100506.72;;;7.17;56.35
60427;BME280;46274;47.168;27.604;2023-10-08T22:50:10;100491.88;;;6.93;55.85
60427;BME280;46274;47.168;27.604;2023-10-08T22:56:33;100526.47;;;7.08;55.62
60427;BME280;46274;47.168;27.604;2023-10-08T23:02:36;100499.81;;;6.75;55.81
60427;BME280;46274;47.168;27.604;2023-10-08T23:08:41;100475.44;;;6.67;55.88
60427;BME280;46274;47.168;27.604;2023-10-08T23:14:47;100543.91;;;7.04;55.40
60427;BME280;46274;47.168;27.604;2023-10-08T23:20:50;100403.16;;;6.24;55.52
60427;BME280;46274;47.168;27.604;2023-10-08T23:26:52;100517.66;;;6.86;55.56
60427;BME280;46274;47.168;27.604;2023-10-08T23:32:56;100405.28;;;6.10;55.50
60427;BME280;46274;47.168;27.604;2023-10-08T23:39:00;100542.63;;;6.98;55.46
60427;BME280;46274;47.168;27.604;2023-10-08T23:45:19;100482.66;;;6.57;55.15
60427;BME280;46274;47.168;27.604;2023-10-08T23:51:28;100528.75;;;6.93;55.57
60427;BME280;46274;47.168;27.604;2023-10-08T23:57:34;100533.56;;;6.89;55.93
